sensor_id;sensor_type;location;lat;lon;timestamp;P1;durP1;ratioP1;P2;durP2;ratioP2
15192;SDS011;7697;51.630;7.484;2022-07-06T00:01:33;1.08;;;0.98;;
15192;SDS011;7697;51.630;7.484;2022-07-06T00:06:38;2.17;;;1.08;;
15192;SDS011;7697;51.630;7.484;2022-07-06T00:11:40;2.40;;;1.30;;
15192;SDS011;7697;51.630;7.484;2022-07-06T00:16:42;2.05;;;1.15;;
15192;SDS011;7697;51.630;7.484;2022-07-06T00:21:45;2.47;;;1.42;;
15192;SDS011;7697;51.630;7.484;2022-07-06T00:26:47;3.22;;;1.08;;
15192;SDS011;7697;51.630;7.484;2022-07-06T00:31:48;1.65;;;1.13;;
15192;SDS011;7697;51.630;7.484;2022-07-06T00:36:51;1.10;;;1.00;;
15192;SDS011;7697;51.630;7.484;2022-07-06T00:41:53;1.30;;;1.20;;
15192;SDS011;7697;51.630;7.484;2022-07-06T00:46:55;4.70;;;1.50;;
15192;SDS011;7697;51.630;7.484;2022-07-06T00:51:58;1.10;;;1.00;;
15192;SDS011;7697;51.630;7.484;2022-07-06T00:57:00;1.50;;;1.05;;
15192;SDS011;7697;51.630;7.484;2022-07-06T01:02:02;2.08;;;1.42;;
15192;SDS011;7697;51.630;7.484;2022-07-06T01:07:05;1.33;;;1.10;;
15192;SDS011;7697;51.630;7.484;2022-07-06T01:12:07;1.23;;;1.13;;
15192;SDS011;7697;51.630;7.484;2022-07-06T01:17:09;2.33;;;1.30;;
15192;SDS011;7697;51.630;7.484;2022-07-06T01:22:13;1.63;;;1.33;;
15192;SDS011;7697;51.630;7.484;2022-07-06T01:27:14;1.75;;;1.50;;
15192;SDS011;7697;51.630;7.484;2022-07-06T01:32:16;2.53;;;1.30;;
15192;SDS011;7697;51.630;7.484;2022-07-06T01:37:20;1.45;;;1.20;;
15192;SDS011;7697;51.630;7.484;2022-07-06T01:42:21;2.13;;;1.20;;
15192;SDS011;7697;51.630;7.484;2022-07-06T01:47:23;2.88;;;1.25;;
15192;SDS011;7697;51.630;7.484;2022-07-06T01:52:27;2.30;;;1.35;;
15192;SDS011;7697;51.630;7.484;2022-07-06T01:57:28;2.40;;;1.42;;
15192;SDS011;7697;51.630;7.484;2022-07-06T02:02:30;2.00;;;1.48;;
15192;SDS011;7697;51.630;7.484;2022-07-06T02:07:35;1.52;;;1.38;;
15192;SDS011;7697;51.630;7.484;2022-07-06T02:12:37;1.33;;;1.20;;
15192;SDS011;7697;51.630;7.484;2022-07-06T02:17:38;1.90;;;1.20;;
15192;SDS011;7697;51.630;7.484;2022-07-06T02:22:41;2.05;;;1.42;;
15192;SDS011;7697;51.630;7.484;2022-07-06T02:27:43;1.92;;;1.25;;
15192;SDS011;7697;51.630;7.484;2022-07-06T02:32:45;2.22;;;1.38;;
15192;SDS011;7697;51.630;7.484;2022-07-06T02:37:48;3.47;;;1.63;;
15192;SDS011;7697;51.630;7.484;2022-07-06T02:42:50;2.50;;;1.65;;
15192;SDS011;7697;51.630;7.484;2022-07-06T02:47:52;2.35;;;1.60;;
15192;SDS011;7697;51.630;7.484;2022-07-06T02:52:57;1.23;;;1.13;;
15192;SDS011;7697;51.630;7.484;2022-07-06T02:58:00;1.50;;;1.40;;
15192;SDS011;7697;51.630;7.484;2022-07-06T03:03:02;1.65;;;1.55;;
15192;SDS011;7697;51.630;7.484;2022-07-06T03:08:05;2.25;;;1.60;;
15192;SDS011;7697;51.630;7.484;2022-07-06T03:13:07;2.53;;;1.80;;
15192;SDS011;7697;51.630;7.484;2022-07-06T03:18:10;1.77;;;1.48;;
15192;SDS011;7697;51.630;7.484;2022-07-06T03:23:13;2.03;;;1.83;;
15192;SDS011;7697;51.630;7.484;2022-07-06T03:28:15;3.58;;;1.88;;
15192;SDS011;7697;51.630;7.484;2022-07-06T03:33:17;1.70;;;1.40;;
15192;SDS011;7697;51.630;7.484;2022-07-06T03:38:20;2.17;;;1.60;;
15192;SDS011;7697;51.630;7.484;2022-07-06T03:43:21;3.47;;;1.60;;
15192;SDS011;7697;51.630;7.484;2022-07-06T03:48:23;1.83;;;1.30;;
15192;SDS011;7697;51.630;7.484;2022-07-06T03:53:26;1.77;;;1.42;;
15192;SDS011;7697;51.630;7.484;2022-07-06T03:58:28;2.47;;;1.70;;
15192;SDS011;7697;51.630;7.484;2022-07-06T04:03:30;4.18;;;1.67;;
15192;SDS011;7697;51.630;7.484;2022-07-06T04:08:33;1.52;;;1.42;;
15192;SDS011;7697;51.630;7.484;2022-07-06T04:13:34;2.30;;;1.52;;
15192;SDS011;7697;51.630;7.484;2022-07-06T04:18:37;1.80;;;1.40;;
15192;SDS011;7697;51.630;7.484;2022-07-06T04:23:40;1.70;;;1.60;;
15192;SDS011;7697;51.630;7.484;2022-07-06T04:28:42;1.73;;;1.58;;
15192;SDS011;7697;51.630;7.484;2022-07-06T04:33:44;1.80;;;1.42;;
15192;SDS011;7697;51.630;7.484;2022-07-06T04:38:47;1.85;;;1.50;;
15192;SDS011;7697;51.630;7.484;2022-07-06T04:43:48;2.00;;;1.48;;
15192;SDS011;7697;51.630;7.484;2022-07-06T04:48:50;2.13;;;1.70;;
15192;SDS011;7697;51.630;7.484;2022-07-06T04:53:53;1.50;;;1.40;;
15192;SDS011;7697;51.630;7.484;2022-07-06T04:58:55;4.32;;;1.80;;
15192;SDS011;7697;51.630;7.484;2022-07-06T05:03:57;2.90;;;1.77;;
15192;SDS011;7697;51.630;7.484;2022-07-06T05:09:00;1.92;;;1.73;;
15192;SDS011;7697;51.630;7.484;2022-07-06T05:14:02;2.17;;;1.77;;
15192;SDS011;7697;51.630;7.484;2022-07-06T05:19:04;3.53;;;1.77;;
15192;SDS011;7697;51.630;7.484;2022-07-06T05:24:07;2.78;;;1.70;;
15192;SDS011;7697;51.630;7.484;2022-07-06T05:29:09;4.28;;;1.80;;
15192;SDS011;7697;51.630;7.484;2022-07-06T05:34:11;2.63;;;1.52;;
15192;SDS011;7697;51.630;7.484;2022-07-06T05:39:14;2.60;;;1.35;;
15192;SDS011;7697;51.630;7.484;2022-07-06T05:44:19;2.08;;;1.48;;
15192;SDS011;7697;51.630;7.484;2022-07-06T05:49:21;2.80;;;1.60;;
15192;SDS011;7697;51.630;7.484;2022-07-06T05:54:41;3.17;;;1.77;;
15192;SDS011;7697;51.630;7.484;2022-07-06T05:59:43;2.53;;;1.65;;
15192;SDS011;7697;51.630;7.484;2022-07-06T06:04:45;2.95;;;1.65;;
15192;SDS011;7697;51.630;7.484;2022-07-06T06:09:48;1.83;;;1.42;;
15192;SDS011;7697;51.630;7.484;2022-07-06T06:14:50;2.20;;;1.50;;
15192;SDS011;7697;51.630;7.484;2022-07-06T06:19:51;2.80;;;1.35;;
15192;SDS011;7697;51.630;7.484;2022-07-06T06:24:55;2.00;;;1.33;;
15192;SDS011;7697;51.630;7.484;2022-07-06T06:29:56;2.00;;;1.42;;
15192;SDS011;7697;51.630;7.484;2022-07-06T06:34:58;3.50;;;1.13;;
15192;SDS011;7697;51.630;7.484;2022-07-06T06:40:01;2.53;;;1.17;;
15192;SDS011;7697;51.630;7.484;2022-07-06T06:45:04;2.42;;;1.10;;
15192;SDS011;7697;51.630;7.484;2022-07-06T06:50:07;1.75;;;1.30;;
15192;SDS011;7697;51.630;7.484;2022-07-06T06:55:10;2.25;;;1.25;;
15192;SDS011;7697;51.630;7.484;2022-07-06T07:00:12;2.17;;;1.08;;
15192;SDS011;7697;51.630;7.484;2022-07-06T07:05:14;2.55;;;1.20;;
15192;SDS011;7697;51.630;7.484;2022-07-06T07:10:18;2.95;;;1.10;;
15192;SDS011;7697;51.630;7.484;2022-07-06T07:15:21;2.83;;;1.50;;
15192;SDS011;7697;51.630;7.484;2022-07-06T07:20:23;1.70;;;1.00;;
15192;SDS011;7697;51.630;7.484;2022-07-06T07:25:28;2.20;;;1.10;;
15192;SDS011;7697;51.630;7.484;2022-07-06T07:30:30;2.13;;;1.10;;
15192;SDS011;7697;51.630;7.484;2022-07-06T07:35:33;1.17;;;1.00;;
15192;SDS011;7697;51.630;7.484;2022-07-06T07:40:36;2.30;;;1.17;;
15192;SDS011;7697;51.630;7.484;2022-07-06T07:45:39;2.85;;;1.33;;
15192;SDS011;7697;51.630;7.484;2022-07-06T07:50:41;1.67;;;1.00;;
15192;SDS011;7697;51.630;7.484;2022-07-06T07:55:45;1.20;;;1.00;;
15192;SDS011;7697;51.630;7.484;2022-07-06T08:00:46;2.92;;;1.15;;
15192;SDS011;7697;51.630;7.484;2022-07-06T08:05:48;3.40;;;1.20;;
15192;SDS011;7697;51.630;7.484;2022-07-06T08:10:52;4.45;;;1.40;;
15192;SDS011;7697;51.630;7.484;2022-07-06T08:15:53;1.63;;;1.10;;
15192;SDS011;7697;51.630;7.484;2022-07-06T08:20:55;1.83;;;1.20;;
15192;SDS011;7697;51.630;7.484;2022-07-06T08:25:58;2.17;;;1.27;;
15192;SDS011;7697;51.630;7.484;2022-07-06T08:31:00;3.08;;;1.40;;
15192;SDS011;7697;51.630;7.484;2022-07-06T08:36:02;2.72;;;1.40;;
15192;SDS011;7697;51.630;7.484;2022-07-06T08:41:06;3.17;;;1.10;;
15192;SDS011;7697;51.630;7.484;2022-07-06T08:46:08;1.58;;;1.05;;
15192;SDS011;7697;51.630;7.484;2022-07-06T08:51:11;1.75;;;1.00;;
15192;SDS011;7697;51.630;7.484;2022-07-06T08:56:16;2.30;;;0.95;;
15192;SDS011;7697;51.630;7.484;2022-07-06T09:01:19;1.42;;;1.02;;
15192;SDS011;7697;51.630;7.484;2022-07-06T09:06:23;2.42;;;0.93;;
15192;SDS011;7697;51.630;7.484;2022-07-06T09:11:27;2.00;;;0.80;;
15192;SDS011;7697;51.630;7.484;2022-07-06T09:16:29;1.00;;;0.70;;
15192;SDS011;7697;51.630;7.484;2022-07-06T09:21:32;2.40;;;1.02;;
15192;SDS011;7697;51.630;7.484;2022-07-06T09:26:38;1.85;;;0.90;;
15192;SDS011;7697;51.630;7.484;2022-07-06T09:31:41;1.45;;;0.88;;
15192;SDS011;7697;51.630;7.484;2022-07-06T09:36:43;1.23;;;0.90;;
15192;SDS011;7697;51.630;7.484;2022-07-06T09:41:48;1.40;;;1.05;;
15192;SDS011;7697;51.630;7.484;2022-07-06T09:46:51;1.13;;;0.93;;
15192;SDS011;7697;51.630;7.484;2022-07-06T09:51:57;2.42;;;0.82;;
15192;SDS011;7697;51.630;7.484;2022-07-06T09:57:01;2.13;;;1.00;;
15192;SDS011;7697;51.630;7.484;2022-07-06T10:02:05;1.40;;;0.70;;
15192;SDS011;7697;51.630;7.484;2022-07-06T10:07:07;1.25;;;0.90;;
15192;SDS011;7697;51.630;7.484;2022-07-06T10:12:12;1.88;;;0.88;;
15192;SDS011;7697;51.630;7.484;2022-07-06T10:17:16;1.17;;;0.77;;
15192;SDS011;7697;51.630;7.484;2022-07-06T10:22:20;2.80;;;0.90;;
15192;SDS011;7697;51.630;7.484;2022-07-06T10:27:23;2.22;;;0.82;;
15192;SDS011;7697;51.630;7.484;2022-07-06T10:32:26;1.17;;;0.90;;
15192;SDS011;7697;51.630;7.484;2022-07-06T10:37:29;2.13;;;0.90;;
15192;SDS011;7697;51.630;7.484;2022-07-06T10:42:40;2.30;;;0.77;;
15192;SDS011;7697;51.630;7.484;2022-07-06T10:47:43;1.38;;;0.80;;
15192;SDS011;7697;51.630;7.484;2022-07-06T10:52:52;2.85;;;0.88;;
15192;SDS011;7697;51.630;7.484;2022-07-06T10:58:01;1.00;;;0.57;;
15192;SDS011;7697;51.630;7.484;2022-07-06T11:14:04;1.65;;;1.00;;
15192;SDS011;7697;51.630;7.484;2022-07-06T11:19:08;1.92;;;1.10;;
15192;SDS011;7697;51.630;7.484;2022-07-06T11:24:12;1.90;;;1.15;;
15192;SDS011;7697;51.630;7.484;2022-07-06T11:29:16;2.10;;;1.08;;
15192;SDS011;7697;51.630;7.484;2022-07-06T11:34:22;1.92;;;1.10;;
15192;SDS011;7697;51.630;7.484;2022-07-06T11:39:26;2.03;;;0.90;;
15192;SDS011;7697;51.630;7.484;2022-07-06T11:44:30;1.83;;;1.10;;
15192;SDS011;7697;51.630;7.484;2022-07-06T11:49:32;1.95;;;1.00;;
15192;SDS011;7697;51.630;7.484;2022-07-06T11:54:35;0.88;;;0.80;;
15192;SDS011;7697;51.630;7.484;2022-07-06T11:59:39;0.77;;;0.63;;
15192;SDS011;7697;51.630;7.484;2022-07-06T12:04:43;1.75;;;0.90;;
15192;SDS011;7697;51.630;7.484;2022-07-06T12:09:47;4.22;;;0.68;;
15192;SDS011;7697;51.630;7.484;2022-07-06T12:14:51;3.10;;;1.10;;
15192;SDS011;7697;51.630;7.484;2022-07-06T12:19:54;1.10;;;0.70;;
15192;SDS011;7697;51.630;7.484;2022-07-06T12:24:56;0.85;;;0.60;;
15192;SDS011;7697;51.630;7.484;2022-07-06T12:30:09;1.10;;;0.70;;
15192;SDS011;7697;51.630;7.484;2022-07-06T12:35:12;0.95;;;0.70;;
15192;SDS011;7697;51.630;7.484;2022-07-06T12:40:15;2.03;;;1.02;;
15192;SDS011;7697;51.630;7.484;2022-07-06T12:45:18;2.15;;;0.85;;
15192;SDS011;7697;51.630;7.484;2022-07-06T12:50:20;1.80;;;0.80;;
15192;SDS011;7697;51.630;7.484;2022-07-06T12:55:31;1.90;;;0.80;;
15192;SDS011;7697;51.630;7.484;2022-07-06T13:00:44;1.15;;;0.88;;
15192;SDS011;7697;51.630;7.484;2022-07-06T13:05:49;2.45;;;0.95;;
15192;SDS011;7697;51.630;7.484;2022-07-06T13:10:51;0.60;;;0.60;;
15192;SDS011;7697;51.630;7.484;2022-07-06T13:15:54;1.33;;;0.80;;
15192;SDS011;7697;51.630;7.484;2022-07-06T13:20:55;1.42;;;0.93;;
15192;SDS011;7697;51.630;7.484;2022-07-06T13:25:57;1.00;;;0.90;;
15192;SDS011;7697;51.630;7.484;2022-07-06T13:31:01;2.30;;;1.30;;
15192;SDS011;7697;51.630;7.484;2022-07-06T13:36:03;1.27;;;0.90;;
15192;SDS011;7697;51.630;7.484;2022-07-06T13:41:05;2.72;;;0.98;;
15192;SDS011;7697;51.630;7.484;2022-07-06T13:46:08;2.28;;;1.08;;
15192;SDS011;7697;51.630;7.484;2022-07-06T13:51:10;0.80;;;0.60;;
15192;SDS011;7697;51.630;7.484;2022-07-06T13:56:12;1.35;;;0.95;;
15192;SDS011;7697;51.630;7.484;2022-07-06T14:01:15;2.25;;;0.88;;
15192;SDS011;7697;51.630;7.484;2022-07-06T14:06:18;1.55;;;0.80;;
15192;SDS011;7697;51.630;7.484;2022-07-06T14:11:20;0.75;;;0.68;;
15192;SDS011;7697;51.630;7.484;2022-07-06T14:16:23;1.30;;;0.90;;
15192;SDS011;7697;51.630;7.484;2022-07-06T14:21:25;0.80;;;0.50;;
15192;SDS011;7697;51.630;7.484;2022-07-06T14:26:27;1.42;;;0.80;;
15192;SDS011;7697;51.630;7.484;2022-07-06T14:31:30;2.50;;;1.00;;
15192;SDS011;7697;51.630;7.484;2022-07-06T14:36:32;1.63;;;0.90;;
15192;SDS011;7697;51.630;7.484;2022-07-06T14:41:34;1.85;;;0.95;;
15192;SDS011;7697;51.630;7.484;2022-07-06T14:46:38;1.60;;;0.88;;
15192;SDS011;7697;51.630;7.484;2022-07-06T14:51:40;1.73;;;1.02;;
15192;SDS011;7697;51.630;7.484;2022-07-06T14:56:42;1.35;;;0.73;;
15192;SDS011;7697;51.630;7.484;2022-07-06T15:01:45;1.13;;;0.65;;
15192;SDS011;7697;51.630;7.484;2022-07-06T15:06:47;0.95;;;0.70;;
15192;SDS011;7697;51.630;7.484;2022-07-06T15:11:50;2.00;;;0.68;;
15192;SDS011;7697;51.630;7.484;2022-07-06T15:16:53;1.80;;;0.85;;
15192;SDS011;7697;51.630;7.484;2022-07-06T15:21:55;1.00;;;0.90;;
15192;SDS011;7697;51.630;7.484;2022-07-06T15:26:56;1.67;;;0.90;;
15192;SDS011;7697;51.630;7.484;2022-07-06T15:32:00;1.27;;;0.70;;
15192;SDS011;7697;51.630;7.484;2022-07-06T15:37:02;0.80;;;0.68;;
15192;SDS011;7697;51.630;7.484;2022-07-06T15:42:04;3.00;;;1.15;;
15192;SDS011;7697;51.630;7.484;2022-07-06T15:47:08;0.93;;;0.85;;
15192;SDS011;7697;51.630;7.484;2022-07-06T15:52:10;1.83;;;0.90;;
15192;SDS011;7697;51.630;7.484;2022-07-06T15:57:12;1.33;;;0.85;;
15192;SDS011;7697;51.630;7.484;2022-07-06T16:02:15;1.10;;;0.60;;
15192;SDS011;7697;51.630;7.484;2022-07-06T16:07:19;2.67;;;1.00;;
15192;SDS011;7697;51.630;7.484;2022-07-06T16:12:21;1.33;;;0.70;;
15192;SDS011;7697;51.630;7.484;2022-07-06T16:17:24;1.42;;;0.85;;
15192;SDS011;7697;51.630;7.484;2022-07-06T16:22:26;1.60;;;1.27;;
15192;SDS011;7697;51.630;7.484;2022-07-06T16:27:28;1.05;;;0.80;;
15192;SDS011;7697;51.630;7.484;2022-07-06T16:32:32;0.98;;;0.80;;
15192;SDS011;7697;51.630;7.484;2022-07-06T16:37:34;2.63;;;0.70;;
15192;SDS011;7697;51.630;7.484;2022-07-06T16:42:36;1.13;;;0.70;;
15192;SDS011;7697;51.630;7.484;2022-07-06T16:47:40;2.30;;;0.75;;
15192;SDS011;7697;51.630;7.484;2022-07-06T16:52:41;1.45;;;0.90;;
15192;SDS011;7697;51.630;7.484;2022-07-06T16:57:43;1.60;;;0.70;;
15192;SDS011;7697;51.630;7.484;2022-07-06T17:02:46;1.20;;;0.80;;
15192;SDS011;7697;51.630;7.484;2022-07-06T17:07:48;1.13;;;0.70;;
15192;SDS011;7697;51.630;7.484;2022-07-06T17:12:50;2.63;;;0.77;;
15192;SDS011;7697;51.630;7.484;2022-07-06T17:17:53;1.88;;;0.80;;
15192;SDS011;7697;51.630;7.484;2022-07-06T17:22:54;1.05;;;0.80;;
15192;SDS011;7697;51.630;7.484;2022-07-06T17:27:57;1.15;;;0.68;;
15192;SDS011;7697;51.630;7.484;2022-07-06T17:33:00;1.17;;;0.80;;
15192;SDS011;7697;51.630;7.484;2022-07-06T17:38:02;1.80;;;0.98;;
15192;SDS011;7697;51.630;7.484;2022-07-06T17:43:04;0.82;;;0.70;;
15192;SDS011;7697;51.630;7.484;2022-07-06T17:48:07;1.30;;;0.70;;
15192;SDS011;7697;51.630;7.484;2022-07-06T17:53:09;2.20;;;0.80;;
15192;SDS011;7697;51.630;7.484;2022-07-06T17:58:10;6.28;;;1.08;;
15192;SDS011;7697;51.630;7.484;2022-07-06T18:03:15;1.38;;;0.80;;
15192;SDS011;7697;51.630;7.484;2022-07-06T18:08:17;1.08;;;0.90;;
15192;SDS011;7697;51.630;7.484;2022-07-06T18:13:19;1.15;;;0.80;;
15192;SDS011;7697;51.630;7.484;2022-07-06T18:18:22;4.20;;;0.85;;
15192;SDS011;7697;51.630;7.484;2022-07-06T18:23:25;3.10;;;0.90;;
15192;SDS011;7697;51.630;7.484;2022-07-06T18:28:27;1.08;;;0.75;;
15192;SDS011;7697;51.630;7.484;2022-07-06T18:33:31;0.95;;;0.77;;
15192;SDS011;7697;51.630;7.484;2022-07-06T18:38:35;1.52;;;1.10;;
15192;SDS011;7697;51.630;7.484;2022-07-06T18:43:37;1.33;;;1.23;;
15192;SDS011;7697;51.630;7.484;2022-07-06T18:48:40;0.60;;;0.60;;
15192;SDS011;7697;51.630;7.484;2022-07-06T18:53:42;1.08;;;0.90;;
15192;SDS011;7697;51.630;7.484;2022-07-06T18:58:44;1.10;;;0.85;;
15192;SDS011;7697;51.630;7.484;2022-07-06T19:03:50;1.05;;;0.90;;
15192;SDS011;7697;51.630;7.484;2022-07-06T19:08:52;1.65;;;1.00;;
15192;SDS011;7697;51.630;7.484;2022-07-06T19:13:53;1.15;;;0.82;;
15192;SDS011;7697;51.630;7.484;2022-07-06T19:18:57;1.35;;;1.00;;
15192;SDS011;7697;51.630;7.484;2022-07-06T19:23:58;0.95;;;0.93;;
15192;SDS011;7697;51.630;7.484;2022-07-06T19:29:00;1.50;;;1.10;;
15192;SDS011;7697;51.630;7.484;2022-07-06T19:34:03;1.15;;;1.00;;
15192;SDS011;7697;51.630;7.484;2022-07-06T19:39:05;1.88;;;0.80;;
15192;SDS011;7697;51.630;7.484;2022-07-06T19:44:07;2.65;;;0.90;;
15192;SDS011;7697;51.630;7.484;2022-07-06T19:49:11;0.95;;;0.85;;
15192;SDS011;7697;51.630;7.484;2022-07-06T19:54:13;2.03;;;1.30;;
15192;SDS011;7697;51.630;7.484;2022-07-06T19:59:15;1.88;;;1.15;;
15192;SDS011;7697;51.630;7.484;2022-07-06T20:04:18;3.08;;;1.30;;
15192;SDS011;7697;51.630;7.484;2022-07-06T20:09:20;1.88;;;1.27;;
15192;SDS011;7697;51.630;7.484;2022-07-06T20:14:22;1.50;;;0.98;;
15192;SDS011;7697;51.630;7.484;2022-07-06T20:19:25;1.08;;;0.80;;
15192;SDS011;7697;51.630;7.484;2022-07-06T20:24:27;2.00;;;0.98;;
15192;SDS011;7697;51.630;7.484;2022-07-06T20:29:29;1.20;;;1.00;;
15192;SDS011;7697;51.630;7.484;2022-07-06T20:34:32;1.55;;;1.10;;
15192;SDS011;7697;51.630;7.484;2022-07-06T20:39:34;1.25;;;0.95;;
15192;SDS011;7697;51.630;7.484;2022-07-06T20:44:36;1.27;;;1.17;;
15192;SDS011;7697;51.630;7.484;2022-07-06T20:49:41;1.10;;;1.00;;
15192;SDS011;7697;51.630;7.484;2022-07-06T20:54:43;2.05;;;1.10;;
15192;SDS011;7697;51.630;7.484;2022-07-06T20:59:45;1.02;;;0.93;;
15192;SDS011;7697;51.630;7.484;2022-07-06T21:04:48;3.03;;;1.20;;
15192;SDS011;7697;51.630;7.484;2022-07-06T21:09:50;2.55;;;1.10;;
15192;SDS011;7697;51.630;7.484;2022-07-06T21:14:55;1.75;;;1.20;;
15192;SDS011;7697;51.630;7.484;2022-07-06T21:19:58;1.10;;;1.00;;
15192;SDS011;7697;51.630;7.484;2022-07-06T21:25:00;1.50;;;1.17;;
15192;SDS011;7697;51.630;7.484;2022-07-06T21:30:03;1.45;;;1.10;;
15192;SDS011;7697;51.630;7.484;2022-07-06T21:35:07;1.08;;;0.90;;
15192;SDS011;7697;51.630;7.484;2022-07-06T21:40:09;1.00;;;0.90;;
15192;SDS011;7697;51.630;7.484;2022-07-06T21:45:20;2.53;;;1.10;;
15192;SDS011;7697;51.630;7.484;2022-07-06T21:50:23;0.98;;;0.93;;
15192;SDS011;7697;51.630;7.484;2022-07-06T21:55:25;1.25;;;1.00;;
15192;SDS011;7697;51.630;7.484;2022-07-06T22:00:27;1.77;;;1.30;;
15192;SDS011;7697;51.630;7.484;2022-07-06T22:05:30;1.35;;;1.10;;
15192;SDS011;7697;51.630;7.484;2022-07-06T22:10:33;1.70;;;1.10;;
15192;SDS011;7697;51.630;7.484;2022-07-06T22:15:37;2.10;;;1.17;;
15192;SDS011;7697;51.630;7.484;2022-07-06T22:20:41;2.22;;;1.13;;
15192;SDS011;7697;51.630;7.484;2022-07-06T22:25:45;2.00;;;1.20;;
15192;SDS011;7697;51.630;7.484;2022-07-06T22:30:57;2.58;;;1.23;;
15192;SDS011;7697;51.630;7.484;2022-07-06T22:36:00;2.25;;;1.50;;
15192;SDS011;7697;51.630;7.484;2022-07-06T22:41:02;1.90;;;1.55;;
15192;SDS011;7697;51.630;7.484;2022-07-06T22:46:05;1.77;;;1.50;;
15192;SDS011;7697;51.630;7.484;2022-07-06T22:51:10;1.95;;;1.42;;
15192;SDS011;7697;51.630;7.484;2022-07-06T22:56:12;1.40;;;1.27;;
15192;SDS011;7697;51.630;7.484;2022-07-06T23:01:15;2.53;;;1.60;;
15192;SDS011;7697;51.630;7.484;2022-07-06T23:06:20;1.60;;;1.30;;
15192;SDS011;7697;51.630;7.484;2022-07-06T23:11:22;1.45;;;1.13;;
15192;SDS011;7697;51.630;7.484;2022-07-06T23:16:25;1.55;;;1.20;;
15192;SDS011;7697;51.630;7.484;2022-07-06T23:21:28;1.83;;;1.30;;
15192;SDS011;7697;51.630;7.484;2022-07-06T23:26:30;1.30;;;1.05;;
15192;SDS011;7697;51.630;7.484;2022-07-06T23:31:31;2.13;;;1.27;;
15192;SDS011;7697;51.630;7.484;2022-07-06T23:36:34;2.10;;;1.50;;
15192;SDS011;7697;51.630;7.484;2022-07-06T23:41:36;3.67;;;1.70;;
15192;SDS011;7697;51.630;7.484;2022-07-06T23:46:38;3.65;;;2.00;;
15192;SDS011;7697;51.630;7.484;2022-07-06T23:51:41;3.45;;;1.63;;
15192;SDS011;7697;51.630;7.484;2022-07-06T23:56:43;3.05;;;1.90;;
